Time;durP1;ratioP1;P1;durP2;ratioP2;P2;SDS_P1;SDS_P2;PMS_P1;PMS_P2;Temp;Humidity;BMP_temperature;BMP_pressure;BME280_temperature;BME280_humidity;BME280_pressure;Samples;Min_cycle;Max_cycle;Signal;HPM_P1;HPM_P2
2022/06/30 00:00:41;;;;;;;8.07;4.63;;;;;;;26.65;47.63;99767.81;4935837;29;20044;-76
2022/06/30 00:03:09;;;;;;;7.32;5.00;;;;;;;26.46;48.94;99763.13;4935423;29;20051;-76
2022/06/30 00:05:38;;;;;;;8.18;4.85;;;;;;;26.29;49.82;99762.63;4935650;29;20047;-76
2022/06/30 00:08:07;;;;;;;8.80;4.63;;;;;;;26.21;50.20;99755.47;4935341;29;20047;-76
2022/06/30 00:10:35;;;;;;;9.32;4.82;;;;;;;26.10;50.79;99753.31;4935787;29;20058;-76
2022/06/30 00:13:03;;;;;;;7.68;5.13;;;;;;;26.00;52.04;99749.28;4935353;29;20046;-76
2022/06/30 00:15:32;;;;;;;9.32;4.97;;;;;;;25.94;52.26;99748.19;4935566;29;20048;-76
2022/06/30 00:18:00;;;;;;;9.40;5.13;;;;;;;25.90;52.28;99753.25;4935377;29;20086;-77
2022/06/30 00:20:29;;;;;;;9.27;5.18;;;;;;;26.03;52.63;99752.44;4935427;29;20047;-77
2022/06/30 00:22:57;;;;;;;10.88;5.50;;;;;;;25.99;53.06;99751.19;4935537;29;20388;-77
2022/06/30 00:25:27;;;;;;;10.57;5.18;;;;;;;25.90;53.23;99757.88;4935668;29;20051;-77
2022/06/30 00:27:55;;;;;;;7.60;5.00;;;;;;;25.84;53.87;99753.19;4935317;29;20457;-78
2022/06/30 00:30:23;;;;;;;7.70;5.03;;;;;;;25.87;53.11;99756.41;4935473;29;20047;-75
2022/06/30 00:32:51;;;;;;;11.05;5.70;;;;;;;25.93;53.00;99747.38;4938476;29;20047;-75
2022/06/30 00:35:19;;;;;;;8.57;4.88;;;;;;;25.68;54.40;99755.22;4939090;29;20070;-75
2022/06/30 00:37:48;;;;;;;10.35;5.50;;;;;;;25.76;53.67;99756.09;4939202;29;20095;-75
2022/06/30 00:40:16;;;;;;;8.32;5.15;;;;;;;25.60;54.59;99755.38;4938841;29;20382;-75
2022/06/30 00:42:45;;;;;;;8.38;4.95;;;;;;;25.47;55.84;99758.00;4938848;29;20043;-75
2022/06/30 00:45:14;;;;;;;8.25;5.07;;;;;;;25.56;55.10;99755.97;4938715;29;20050;-75
2022/06/30 00:47:42;;;;;;;9.43;5.35;;;;;;;25.45;56.01;99754.66;4938756;29;20500;-74
2022/06/30 00:50:10;;;;;;;8.48;5.50;;;;;;;25.34;56.18;99752.47;4938723;29;20058;-74
2022/06/30 00:52:39;;;;;;;9.80;5.40;;;;;;;25.24;56.48;99752.81;4938716;29;20044;-74
2022/06/30 00:55:07;;;;;;;8.82;5.20;;;;;;;25.36;54.94;99758.56;4921332;29;20056;-74
2022/06/30 00:57:41;;;;;;;10.63;5.65;;;;;;;25.35;56.28;99752.28;4938638;29;20055;-74
2022/06/30 01:00:12;;;;;;;9.30;5.60;;;;;;;25.39;54.66;99760.94;4938316;29;20154;-74
2022/06/30 01:02:41;;;;;;;10.95;6.00;;;;;;;25.40;55.38;99757.16;4938581;29;20126;-77
2022/06/30 01:05:10;;;;;;;9.60;5.25;;;;;;;25.39;55.21;99755.47;4938315;29;20056;-77
2022/06/30 01:07:40;;;;;;;10.27;5.72;;;;;;;25.47;54.33;99746.25;4938472;29;20126;-77
2022/06/30 01:12:54;;;;;;;9.85;5.40;;;;;;;25.32;55.34;99749.09;4938639;29;20050;-77
2022/06/30 01:15:24;;;;;;;9.27;5.72;;;;;;;25.18;55.91;99741.84;4938156;29;20052;-77
2022/06/30 01:17:52;;;;;;;10.15;5.40;;;;;;;25.23;55.64;99734.78;4938546;29;20051;-76
2022/06/30 01:20:30;;;;;;;11.60;6.05;;;;;;;25.23;55.67;99731.19;4938067;29;20075;-77
2022/06/30 01:23:01;;;;;;;8.88;5.63;;;;;;;25.09;56.09;99736.56;4938467;29;20046;-79
2022/06/30 01:25:30;;;;;;;8.18;5.55;;;;;;;25.06;56.43;99739.69;4938498;29;20040;-77
2022/06/30 01:27:59;;;;;;;10.88;5.88;;;;;;;24.97;57.39;99740.84;4937951;29;20087;-77
2022/06/30 01:30:27;;;;;;;8.10;5.45;;;;;;;24.85;57.49;99736.97;4938125;29;20126;-77
2022/06/30 01:32:55;;;;;;;9.43;5.80;;;;;;;24.79;57.80;99729.56;4937966;29;20501;-77
2022/06/30 01:35:24;;;;;;;8.80;5.53;;;;;;;24.82;57.73;99737.38;4937977;29;20048;-77
2022/06/30 01:37:54;;;;;;;9.32;5.80;;;;;;;24.94;57.67;99734.94;4938096;29;20122;-77
2022/06/30 01:40:26;;;;;;;11.35;6.07;;;;;;;24.72;58.49;99740.44;4937911;29;20091;-76
2022/06/30 01:42:54;;;;;;;11.25;6.18;;;;;;;24.53;59.86;99744.66;4937027;29;20051;-76
2022/06/30 01:45:24;;;;;;;11.45;6.45;;;;;;;24.47;60.71;99752.75;4937686;29;20052;-76
2022/06/30 01:47:53;;;;;;;8.30;6.05;;;;;;;24.32;61.16;99743.78;4937575;29;20051;-76
2022/06/30 01:50:23;;;;;;;9.65;5.90;;;;;;;24.39;62.19;99751.00;4937288;29;20048;-75
2022/06/30 01:52:52;;;;;;;7.85;5.05;;;;;;;24.42;62.13;99753.34;4937666;29;20052;-79
2022/06/30 01:55:20;;;;;;;10.90;5.57;;;;;;;24.49;62.33;99759.69;4937713;29;20067;-79
2022/06/30 01:57:50;;;;;;;10.57;5.50;;;;;;;24.58;62.50;99759.56;4937690;29;20047;-80
2022/06/30 02:00:21;;;;;;;7.57;5.53;;;;;;;24.69;61.63;99759.03;4937244;29;20047;-79
2022/06/30 02:02:49;;;;;;;8.75;5.90;;;;;;;24.61;61.83;99760.03;4937721;29;20082;-77
2022/06/30 02:05:18;;;;;;;9.40;5.88;;;;;;;24.42;62.85;99766.13;4937454;29;20044;-77
2022/06/30 02:07:47;;;;;;;9.70;5.65;;;;;;;24.48;62.64;99770.78;4937445;29;20497;-77
2022/06/30 02:10:18;;;;;;;9.32;5.45;;;;;;;24.34;63.81;99766.25;4937118;29;20491;-77
2022/06/30 02:12:46;;;;;;;8.52;5.40;;;;;;;24.40;64.25;99763.56;4937280;29;20050;-76
2022/06/30 02:15:20;;;;;;;9.52;5.85;;;;;;;24.35;64.14;99768.78;4936822;29;20048;-77
2022/06/30 02:17:50;;;;;;;10.02;5.47;;;;;;;24.06;66.23;99763.38;4937101;29;20055;-77
2022/06/30 02:20:23;;;;;;;12.07;6.20;;;;;;;24.02;66.50;99775.66;4937179;29;20091;-76
2022/06/30 02:22:55;;;;;;;7.57;5.38;;;;;;;24.05;66.35;99770.72;4937558;29;20051;-76
2022/06/30 02:25:24;;;;;;;7.97;5.68;;;;;;;23.92;66.51;99774.09;4936869;29;20054;-75
2022/06/30 02:27:53;;;;;;;8.57;5.63;;;;;;;23.82;66.63;99776.25;4919974;29;20091;-75
2022/06/30 02:30:24;;;;;;;10.20;6.13;;;;;;;23.63;67.16;99769.50;4936986;29;20110;-76
2022/06/30 02:32:52;;;;;;;12.65;6.10;;;;;;;23.92;65.67;99776.81;4937023;29;20043;-77
2022/06/30 02:35:21;;;;;;;8.02;5.47;;;;;;;23.84;66.12;99779.66;4936664;29;20075;-76
2022/06/30 02:37:49;;;;;;;11.77;5.70;;;;;;;23.81;66.65;99776.47;4936679;29;20082;-77
2022/06/30 02:40:18;;;;;;;10.88;6.32;;;;;;;23.89;66.32;99782.66;4936761;29;20048;-78
2022/06/30 02:42:46;;;;;;;8.88;6.30;;;;;;;23.72;66.92;99783.88;4936866;29;20478;-77
2022/06/30 02:45:14;;;;;;;10.98;6.53;;;;;;;23.63;67.93;99774.13;4936431;29;20044;-77
2022/06/30 02:47:45;;;;;;;8.45;6.30;;;;;;;23.69;67.71;99773.38;4936702;29;20051;-76
2022/06/30 02:50:13;;;;;;;8.20;6.10;;;;;;;23.83;67.11;99764.34;4936339;29;20501;-78
2022/06/30 02:52:42;;;;;;;11.13;6.13;;;;;;;23.64;68.16;99770.34;4937013;29;20058;-77
2022/06/30 02:55:11;;;;;;;10.05;6.47;;;;;;;23.75;67.03;99775.34;4936082;29;20047;-76
2022/06/30 02:57:39;;;;;;;12.73;6.43;;;;;;;23.81;66.17;99771.84;4936633;29;20087;-76
2022/06/30 03:00:10;;;;;;;9.80;6.18;;;;;;;23.78;66.44;99783.13;4936063;29;20545;-75
2022/06/30 03:02:39;;;;;;;7.50;6.45;;;;;;;23.76;66.22;99785.22;4936425;29;20090;-76
2022/06/30 03:05:10;;;;;;;10.27;7.00;;;;;;;23.64;67.20;99786.69;4936311;29;20047;-76
2022/06/30 03:07:38;;;;;;;9.18;6.82;;;;;;;23.84;66.10;99782.38;4936450;29;20043;-76
2022/06/30 03:10:07;;;;;;;13.73;7.32;;;;;;;24.11;64.79;99771.81;4936030;29;20126;-76
2022/06/30 03:12:35;;;;;;;9.50;6.50;;;;;;;24.06;64.04;99779.72;4936556;29;20432;-76
2022/06/30 03:15:05;;;;;;;9.77;6.07;;;;;;;24.08;63.96;99788.53;4936042;29;20050;-78
2022/06/30 03:17:33;;;;;;;10.60;6.40;;;;;;;24.11;64.09;99788.16;4919132;29;20052;-76
2022/06/30 03:20:02;;;;;;;8.88;6.20;;;;;;;23.87;65.72;99792.91;4936285;29;20052;-76
2022/06/30 03:22:32;;;;;;;7.63;5.90;;;;;;;23.87;65.55;99797.50;4936299;29;20071;-76
2022/06/30 03:25:00;;;;;;;10.77;6.60;;;;;;;23.96;65.76;99791.75;4935967;29;20048;-76
2022/06/30 03:27:28;;;;;;;8.75;6.55;;;;;;;24.21;64.42;99796.88;4918755;29;20568;-76
2022/06/30 03:29:57;;;;;;;12.43;6.68;;;;;;;24.34;63.38;99799.81;4935830;29;20086;-76
2022/06/30 03:32:25;;;;;;;8.50;6.07;;;;;;;24.42;62.99;99804.31;4935869;29;20051;-76
2022/06/30 03:34:53;;;;;;;7.60;5.95;;;;;;;24.57;62.11;99790.59;4935963;29;20047;-76
2022/06/30 03:37:21;;;;;;;10.90;6.00;;;;;;;24.68;61.66;99798.25;4935684;29;20043;-74
2022/06/30 03:39:51;;;;;;;11.27;6.10;;;;;;;25.30;59.36;99803.06;4935888;29;20405;-76
2022/06/30 03:42:19;;;;;;;10.23;5.90;;;;;;;25.30;59.08;99803.91;4935646;29;20040;-77
2022/06/30 03:44:47;;;;;;;8.43;6.03;;;;;;;25.85;57.31;99809.53;4936025;29;20150;-77
2022/06/30 03:47:16;;;;;;;10.35;6.78;;;;;;;26.11;56.04;99809.66;4935552;29;20043;-77
2022/06/30 03:49:45;;;;;;;10.82;6.35;;;;;;;26.32;55.31;99816.06;4935889;29;20044;-77
2022/06/30 03:52:13;;;;;;;10.40;6.40;;;;;;;26.42;55.47;99820.13;4918750;29;20055;-78
2022/06/30 03:54:41;;;;;;;9.00;6.35;;;;;;;27.12;52.63;99820.72;4935742;29;20055;-76
2022/06/30 03:57:11;;;;;;;8.85;6.10;;;;;;;27.45;52.04;99811.63;4935246;29;20058;-78
2022/06/30 03:59:39;;;;;;;12.27;6.70;;;;;;;27.77;50.72;99816.25;4935828;29;20079;-78
2022/06/30 04:02:07;;;;;;;9.63;6.38;;;;;;;28.40;49.34;99810.16;4935609;29;20043;-79
2022/06/30 04:04:35;;;;;;;10.27;6.18;;;;;;;28.34;48.80;99822.81;4935747;29;20052;-75
2022/06/30 04:07:04;;;;;;;9.98;6.60;;;;;;;28.79;48.44;99809.06;4937660;29;20131;-79
2022/06/30 04:09:32;;;;;;;11.57;6.47;;;;;;;28.82;47.86;99819.59;4922227;29;20094;-75
2022/06/30 04:12:01;;;;;;;8.15;6.03;;;;;;;28.99;47.01;99823.53;4939364;29;20490;-75
2022/06/30 04:14:30;;;;;;;9.90;6.45;;;;;;;29.43;46.14;99820.84;4939332;29;20126;-75
2022/06/30 04:16:59;;;;;;;9.82;5.63;;;;;;;29.73;45.86;99823.78;4939529;29;20471;-76
2022/06/30 04:19:28;;;;;;;10.27;6.13;;;;;;;30.02;44.24;99823.03;4939040;29;20048;-76
2022/06/30 04:21:56;;;;;;;9.07;5.78;;;;;;;30.08;43.66;99824.88;4922048;29;20070;-77
2022/06/30 04:24:25;;;;;;;10.27;5.78;;;;;;;30.39;43.51;99826.59;4938841;29;20103;-77
2022/06/30 04:26:53;;;;;;;7.13;5.60;;;;;;;30.88;41.85;99821.06;4939103;29;20067;-77
2022/06/30 04:29:21;;;;;;;10.55;5.25;;;;;;;30.49;42.54;99826.03;4939095;29;20048;-77
2022/06/30 04:34:37;;;;;;;11.10;5.43;;;;;;;31.14;41.32;99822.56;4939091;29;20054;-76
2022/06/30 04:37:10;;;;;;;10.63;5.63;;;;;;;31.74;39.80;99811.38;4921943;29;20390;-76
2022/06/30 04:39:38;;;;;;;12.77;5.72;;;;;;;31.91;39.34;99823.38;4939052;29;20043;-75
2022/06/30 04:42:06;;;;;;;6.45;5.20;;;;;;;31.97;39.38;99816.91;4939093;29;20043;-74
2022/06/30 04:44:34;;;;;;;11.50;5.40;;;;;;;32.30;38.54;99821.75;4938694;29;20052;-74
2022/06/30 04:47:04;;;;;;;10.35;5.00;;;;;;;32.63;37.45;99814.69;4938654;29;20095;-74
2022/06/30 04:49:32;;;;;;;8.63;5.28;;;;;;;32.72;37.56;99814.03;4938654;29;20043;-76
2022/06/30 04:52:00;;;;;;;9.10;5.78;;;;;;;32.66;37.81;99822.47;4938842;29;20043;-75
2022/06/30 04:54:28;;;;;;;10.63;5.57;;;;;;;32.95;36.60;99826.06;4938569;29;20048;-75
2022/06/30 04:56:56;;;;;;;10.55;4.85;;;;;;;32.74;37.31;99822.06;4938696;29;20043;-74
2022/06/30 04:59:24;;;;;;;9.63;4.97;;;;;;;32.56;37.04;99825.03;4938164;29;20489;-75
2022/06/30 05:01:52;;;;;;;8.63;5.03;;;;;;;32.95;36.56;99815.03;4938830;29;20043;-74
2022/06/30 05:04:22;;;;;;;7.75;4.95;;;;;;;33.82;34.81;99817.28;4938252;29;20062;-74
2022/06/30 05:06:51;;;;;;;11.27;5.60;;;;;;;34.44;34.38;99822.53;4938679;29;20047;-74
2022/06/30 05:09:19;;;;;;;11.60;5.30;;;;;;;34.20;34.64;99829.44;4937974;29;20091;-74
2022/06/30 05:11:47;;;;;;;9.85;5.03;;;;;;;34.00;34.53;99817.00;4938676;29;20040;-75
2022/06/30 05:14:15;;;;;;;9.00;5.57;;;;;;;33.84;34.86;99815.06;4937899;29;20409;-75
2022/06/30 05:16:44;;;;;;;9.55;4.97;;;;;;;33.96;34.76;99815.00;4938302;29;20051;-78
2022/06/30 05:19:12;;;;;;;11.65;4.88;;;;;;;34.31;34.44;99814.63;4937910;29;20052;-79
2022/06/30 05:21:42;;;;;;;7.60;4.50;;;;;;;34.48;33.25;99812.66;4938243;29;20048;-74
2022/06/30 05:26:55;;;;;;;10.18;4.88;;;;;;;35.15;32.08;99820.56;4938102;29;20064;-74
2022/06/30 05:29:24;;;;;;;9.48;5.03;;;;;;;35.80;31.32;99815.75;4938173;29;20094;-74
2022/06/30 05:31:52;;;;;;;8.10;4.78;;;;;;;36.12;30.36;99815.69;4938097;29;20055;-73
2022/06/30 05:34:20;;;;;;;8.07;5.00;;;;;;;36.56;29.35;99818.09;4937516;29;20050;-73
2022/06/30 05:36:50;;;;;;;9.75;4.70;;;;;;;36.33;28.98;99814.66;4937686;29;20413;-76
2022/06/30 05:39:19;;;;;;;8.05;4.53;;;;;;;36.56;28.89;99812.53;4937281;29;20054;-73
2022/06/30 05:41:47;;;;;;;8.45;5.03;;;;;;;36.22;29.00;99812.97;4937995;29;20537;-73
2022/06/30 05:44:15;;;;;;;7.75;4.43;;;;;;;36.87;27.52;99821.81;4937349;29;20436;-73
2022/06/30 05:46:44;;;;;;;6.57;3.60;;;;;;;37.29;25.41;99821.56;4937819;29;20477;-74
2022/06/30 05:49:13;;;;;;;8.73;3.90;;;;;;;37.26;26.12;99822.13;4937617;29;20126;-72
2022/06/30 05:51:41;;;;;;;6.38;3.83;;;;;;;36.81;25.44;99829.28;4937454;29;20048;-74
2022/06/30 05:54:10;;;;;;;9.25;3.85;;;;;;;37.33;25.84;99825.47;4937751;29;20052;-73
2022/06/30 05:56:38;;;;;;;6.80;3.78;;;;;;;37.64;24.65;99817.09;4937652;29;20048;-75
2022/06/30 05:59:07;;;;;;;6.38;3.65;;;;;;;37.58;24.21;99818.22;4937608;29;20068;-75
2022/06/30 06:01:35;;;;;;;6.90;3.85;;;;;;;37.86;24.24;99816.81;4937244;29;20409;-74
2022/06/30 06:04:03;;;;;;;6.88;3.33;;;;;;;38.06;23.46;99823.16;4937247;29;20402;-72
2022/06/30 06:06:31;;;;;;;7.85;3.55;;;;;;;37.81;23.63;99823.22;4936995;29;20044;-72
2022/06/30 06:08:59;;;;;;;6.70;3.70;;;;;;;38.27;23.75;99825.88;4937419;29;20054;-71
2022/06/30 06:11:30;;;;;;;6.75;3.38;;;;;;;38.57;22.77;99827.66;4937193;29;20055;-77
2022/06/30 06:13:58;;;;;;;6.35;3.40;;;;;;;38.49;23.65;99820.75;4939772;29;20046;-74
2022/06/30 06:16:26;;;;;;;5.10;3.20;;;;;;;39.26;21.87;99823.88;4936831;29;20139;-74
2022/06/30 06:18:54;;;;;;;6.18;3.40;;;;;;;38.99;22.18;99826.31;4939932;29;20043;-76
2022/06/30 06:21:22;;;;;;;8.88;3.40;;;;;;;39.01;21.92;99824.91;4946095;29;20125;-77
2022/06/30 06:23:50;;;;;;;4.90;3.30;;;;;;;38.78;22.40;99822.84;4947204;29;20047;-78
2022/06/30 06:26:19;;;;;;;8.73;3.50;;;;;;;38.80;22.18;99818.66;4953722;29;20400;-76
2022/06/30 06:31:41;;;;;;;8.65;3.45;;;;;;;39.46;21.77;99825.66;4945644;29;20055;-85
2022/06/30 06:34:10;;;;;;;7.18;3.78;;;;;;;39.45;21.81;99818.41;4956160;29;20466;-80
2022/06/30 06:36:38;;;;;;;6.80;3.67;;;;;;;39.64;21.60;99827.75;4955624;29;20465;-72
2022/06/30 06:39:06;;;;;;;6.60;3.75;;;;;;;39.74;21.08;99810.91;4955992;29;20047;-73
2022/06/30 06:41:35;;;;;;;5.00;3.25;;;;;;;39.76;20.75;99824.56;4955605;29;20043;-74
2022/06/30 06:44:05;;;;;;;7.15;3.70;;;;;;;39.55;21.88;99823.91;4955879;29;20043;-74
2022/06/30 06:46:33;;;;;;;5.60;3.28;;;;;;;39.41;21.63;99822.94;4955723;29;20047;-74
2022/06/30 06:49:03;;;;;;;10.05;3.90;;;;;;;39.33;22.07;99815.19;4955401;28;20111;-72
2022/06/30 06:51:32;;;;;;;5.40;3.63;;;;;;;39.85;21.16;99808.81;4955173;29;20488;-72
2022/06/30 06:54:00;;;;;;;8.10;3.60;;;;;;;39.50;21.64;99810.00;4965334;28;20047;-72
2022/06/30 06:56:29;;;;;;;5.10;3.50;;;;;;;38.65;22.87;99813.13;4971811;28;20047;-72
2022/06/30 06:59:00;;;;;;;5.80;3.50;;;;;;;39.14;22.58;99810.34;4956748;28;20051;-71
2022/06/30 07:01:30;;;;;;;5.00;3.22;;;;;;;38.67;22.96;99819.28;4974674;28;20102;-71
2022/06/30 07:03:59;;;;;;;5.93;3.72;;;;;;;37.59;23.74;99815.16;4974808;28;20047;-71
2022/06/30 07:06:27;;;;;;;9.25;3.75;;;;;;;36.57;24.45;99803.94;4974561;28;20527;-71
2022/06/30 07:08:55;;;;;;;8.52;4.10;;;;;;;35.79;25.32;99803.81;4974923;28;20058;-71
2022/06/30 07:11:24;;;;;;;6.57;3.33;;;;;;;36.18;25.20;99806.25;4974618;28;20181;-71
2022/06/30 07:13:52;;;;;;;8.48;3.92;;;;;;;36.34;24.98;99801.63;4974692;28;20049;-71
2022/06/30 07:16:20;;;;;;;6.13;3.40;;;;;;;36.53;24.73;99804.75;4974415;28;20042;-72
2022/06/30 07:18:50;;;;;;;7.68;3.80;;;;;;;36.44;24.25;99796.13;4974360;28;20098;-71
2022/06/30 07:21:20;;;;;;;7.35;3.47;;;;;;;36.30;24.91;99797.72;4974356;28;20078;-71
2022/06/30 07:23:48;;;;;;;5.63;3.78;;;;;;;35.12;24.77;99792.50;4974599;28;20050;-71
2022/06/30 07:26:16;;;;;;;7.25;3.42;;;;;;;35.03;25.45;99789.38;4974138;28;20061;-71
2022/06/30 07:28:45;;;;;;;7.53;3.63;;;;;;;35.28;26.17;99792.38;4974225;28;20108;-71
2022/06/30 07:31:23;;;;;;;8.07;3.53;;;;;;;35.38;25.68;99782.47;4974418;28;20399;-72
2022/06/30 07:33:53;;;;;;;7.88;3.65;;;;;;;35.72;25.65;99792.16;4957229;28;20097;-72
2022/06/30 07:36:21;;;;;;;8.50;3.70;;;;;;;35.56;26.14;99787.59;4974336;28;20098;-72
2022/06/30 07:38:50;;;;;;;6.13;4.13;;;;;;;35.31;25.54;99784.63;4956856;28;20126;-71
2022/06/30 07:41:19;;;;;;;9.90;3.88;;;;;;;35.10;26.09;99784.47;4973488;28;20404;-71
2022/06/30 07:43:47;;;;;;;9.23;3.63;;;;;;;34.87;26.15;99788.41;4974273;28;20043;-71
2022/06/30 07:46:16;;;;;;;7.65;3.40;;;;;;;35.02;26.46;99796.03;4974053;28;20482;-71
2022/06/30 07:48:45;;;;;;;7.78;3.70;;;;;;;34.76;26.73;99781.09;4974155;28;20046;-71
2022/06/30 07:51:16;;;;;;;7.50;3.50;;;;;;;34.72;26.62;99780.75;4974270;28;20053;-71
2022/06/30 07:53:44;;;;;;;9.77;4.00;;;;;;;34.61;27.12;99784.53;4974032;28;20443;-72
2022/06/30 07:56:13;;;;;;;5.65;3.58;;;;;;;34.65;26.89;99782.94;4974146;28;20375;-71
2022/06/30 07:58:41;;;;;;;6.30;3.65;;;;;;;34.26;27.05;99784.09;4973769;28;20045;-71
2022/06/30 08:01:09;;;;;;;8.63;3.83;;;;;;;34.16;27.77;99770.97;4974304;28;20051;-71
2022/06/30 08:03:42;;;;;;;8.00;3.75;;;;;;;34.03;27.39;99769.44;4973981;28;20047;-71
2022/06/30 08:06:11;;;;;;;8.23;3.60;;;;;;;33.89;27.91;99775.63;4974258;28;20053;-72
2022/06/30 08:08:41;;;;;;;9.15;3.90;;;;;;;34.05;28.06;99766.41;4973725;28;20047;-72
2022/06/30 08:11:10;;;;;;;10.00;3.90;;;;;;;34.26;26.77;99767.50;4973897;28;20043;-71
2022/06/30 08:13:38;;;;;;;11.20;3.90;;;;;;;34.35;25.96;99771.47;4956540;28;20051;-71
2022/06/30 08:16:07;;;;;;;6.00;3.90;;;;;;;34.35;26.19;99774.25;4956716;28;20055;-70
2022/06/30 08:18:35;;;;;;;6.88;3.53;;;;;;;34.36;26.32;99773.16;4973871;28;20433;-73
2022/06/30 08:21:03;;;;;;;8.45;3.75;;;;;;;34.21;26.28;99778.53;4973919;28;20444;-71
2022/06/30 08:23:32;;;;;;;5.25;3.65;;;;;;;34.09;26.66;99773.97;4956293;28;20051;-73
2022/06/30 08:26:01;;;;;;;9.20;3.90;;;;;;;34.18;26.49;99768.81;4973607;28;20089;-72
2022/06/30 08:28:31;;;;;;;6.30;3.50;;;;;;;33.96;26.76;99770.72;4973918;28;20070;-72
2022/06/30 08:31:00;;;;;;;7.28;3.50;;;;;;;34.01;26.52;99760.56;4956715;28;20508;-72
2022/06/30 08:33:28;;;;;;;5.18;3.53;;;;;;;33.63;26.83;99769.72;4973265;28;20130;-73
2022/06/30 08:35:57;;;;;;;8.52;3.50;;;;;;;33.72;26.71;99772.88;4973688;28;20053;-71
2022/06/30 08:38:28;;;;;;;6.65;3.83;;;;;;;33.90;26.81;99764.31;4973358;28;20051;-71
2022/06/30 08:43:44;;;;;;;8.38;3.45;;;;;;;34.02;27.22;99765.00;4973420;28;20492;-70
2022/06/30 08:46:13;;;;;;;7.22;3.40;;;;;;;34.18;26.37;99760.50;4973482;28;20042;-70
2022/06/30 08:48:42;;;;;;;7.00;3.63;;;;;;;34.25;26.50;99771.34;4973288;28;20051;-70
2022/06/30 08:51:13;;;;;;;7.05;3.70;;;;;;;34.26;26.68;99767.50;4973370;28;20062;-72
2022/06/30 08:53:51;;;;;;;7.15;3.70;;;;;;;34.05;26.74;99760.88;4976229;28;20043;-72
2022/06/30 08:56:20;;;;;;;8.63;3.75;;;;;;;34.23;26.13;99759.72;4977105;28;20400;-71
2022/06/30 08:58:51;;;;;;;6.60;3.33;;;;;;;34.29;25.90;99764.22;4976982;28;20054;-72
2022/06/30 09:01:19;;;;;;;9.20;3.83;;;;;;;34.42;26.29;99755.53;4976802;28;20042;-72
2022/06/30 09:03:48;;;;;;;8.88;4.40;;;;;;;34.21;26.01;99759.13;4976659;28;20047;-72
2022/06/30 09:06:16;;;;;;;8.05;3.15;;;;;;;34.36;25.27;99749.09;4976812;28;20496;-72
2022/06/30 09:09:03;;;;;;;6.72;3.60;;;;;;;34.40;25.12;99754.97;4977091;28;20066;-72
2022/06/30 09:11:46;;;;;;;5.82;3.50;;;;;;;34.46;24.98;99756.69;4976541;28;20101;-72
2022/06/30 09:14:38;;;;;;;11.45;3.55;;;;;;;34.47;24.70;99758.38;4959786;28;20062;-72
2022/06/30 09:17:08;;;;;;;9.68;3.95;;;;;;;34.41;25.43;99751.94;4976784;28;20060;-72
2022/06/30 09:19:40;;;;;;;6.20;3.60;;;;;;;34.28;24.94;99745.94;4976430;28;20043;-72
2022/06/30 09:22:12;;;;;;;9.30;3.63;;;;;;;34.26;24.46;99748.97;4976660;28;20039;-72
2022/06/30 09:24:41;;;;;;;6.00;3.17;;;;;;;34.28;24.87;99743.19;4976255;28;20560;-72
2022/06/30 09:27:11;;;;;;;5.82;3.03;;;;;;;34.48;24.98;99754.50;4976347;28;20058;-72
2022/06/30 09:29:49;;;;;;;6.07;3.00;;;;;;;34.54;24.88;99753.44;4976268;28;20127;-72
2022/06/30 09:32:49;;;;;;;5.13;3.25;;;;;;;34.48;24.40;99743.44;4976214;28;20050;-72
2022/06/30 09:35:19;;;;;;;5.18;3.30;;;;;;;34.51;25.18;99745.66;4976651;28;20049;-72
2022/06/30 09:37:59;;;;;;;6.35;3.40;;;;;;;34.52;24.81;99750.09;4976078;28;20511;-72
2022/06/30 09:40:32;;;;;;;5.00;3.67;;;;;;;34.66;25.11;99745.81;4958710;28;20061;-81
2022/06/30 09:43:01;;;;;;;8.48;3.20;;;;;;;34.62;25.23;99744.66;4976291;28;20043;-72
2022/06/30 09:45:40;;;;;;;6.20;3.33;;;;;;;34.81;24.81;99738.75;4976170;28;20042;-72
2022/06/30 09:48:10;;;;;;;6.55;3.33;;;;;;;34.83;24.42;99747.63;4976240;28;20046;-72
2022/06/30 09:50:39;;;;;;;10.00;4.35;;;;;;;34.96;23.57;99753.59;4975934;28;20051;-72
2022/06/30 09:53:11;;;;;;;6.97;3.40;;;;;;;34.94;23.04;99741.13;4976048;28;20054;-72
2022/06/30 09:55:41;;;;;;;;;;;;;;;34.96;23.43;99739.75;4976256;28;20057;-72
2022/06/30 09:58:10;;;;;;;7.35;3.40;;;;;;;34.73;23.95;99740.88;4958657;28;19981;-72
2022/06/30 10:00:49;;;;;;;7.90;3.60;;;;;;;34.71;24.28;99732.00;4958215;28;20053;-72
2022/06/30 10:03:18;;;;;;;5.15;3.10;;;;;;;34.90;24.57;99724.16;4975918;28;20055;-72
2022/06/30 10:05:48;;;;;;;6.88;3.72;;;;;;;34.94;24.53;99721.72;4975016;28;20054;-72
2022/06/30 10:08:19;;;;;;;7.47;3.28;;;;;;;35.05;24.39;99726.25;4975599;28;20483;-72
2022/06/30 10:10:47;;;;;;;8.80;3.28;;;;;;;35.07;24.20;99723.19;4975746;28;20054;-72
2022/06/30 10:13:17;;;;;;;7.00;3.25;;;;;;;35.12;24.28;99721.28;4975681;28;20047;-72
2022/06/30 10:15:54;;;;;;;6.93;3.40;;;;;;;35.15;23.82;99718.00;4975671;28;20057;-72
2022/06/30 10:18:25;;;;;;;6.65;3.10;;;;;;;35.21;24.02;99725.22;4975476;28;20066;-71
2022/06/30 10:20:55;;;;;;;8.48;3.40;;;;;;;35.08;24.95;99706.31;4975333;28;20451;-71
2022/06/30 10:23:24;;;;;;;8.27;3.75;;;;;;;35.21;24.22;99710.53;4975633;28;20138;-71
2022/06/30 10:25:55;;;;;;;4.80;2.85;;;;;;;35.27;23.06;99713.09;4975239;28;20070;-71
2022/06/30 10:28:25;;;;;;;4.95;3.13;;;;;;;34.94;23.01;99705.09;4975584;28;20047;-71
2022/06/30 10:31:00;;;;;;;6.57;3.00;;;;;;;34.78;22.60;99714.34;4957763;28;20081;-71
2022/06/30 10:33:37;;;;;;;7.80;3.28;;;;;;;34.67;22.45;99711.50;4958184;28;20081;-71
2022/06/30 10:36:11;;;;;;;6.45;3.13;;;;;;;34.90;22.73;99702.00;4958220;28;20050;-71
2022/06/30 10:38:51;;;;;;;8.98;3.10;;;;;;;34.99;23.23;99688.50;4975103;28;20514;-72
2022/06/30 10:41:24;;;;;;;7.82;3.17;;;;;;;34.87;22.73;99691.44;4957627;28;20558;-71
2022/06/30 10:44:12;;;;;;;;;;;;;;;34.92;22.87;99683.19;4975651;28;20480;-71
2022/06/30 10:47:04;;;;;;;8.75;2.95;;;;;;;35.09;22.68;99696.03;4974976;28;19945;-71
2022/06/30 10:49:52;;;;;;;7.20;2.85;;;;;;;35.18;22.61;99692.50;4957370;28;20109;-71
2022/06/30 10:52:27;;;;;;;6.22;2.90;;;;;;;35.36;22.17;99679.31;4957993;28;20054;-71
2022/06/30 10:55:06;;;;;;;6.28;2.80;;;;;;;35.48;22.00;99686.34;4957554;28;20055;-72
2022/06/30 10:58:03;;;;;;;6.30;2.90;;;;;;;35.52;21.76;99683.88;4974814;28;20125;-72
2022/06/30 11:00:44;;;;;;;5.72;2.90;;;;;;;35.64;22.41;99684.47;4974979;28;20051;-72
2022/06/30 11:03:58;;;;;;;8.15;2.95;;;;;;;35.70;22.23;99683.38;4957612;28;20051;-71
2022/06/30 11:07:07;;;;;;;9.10;3.13;;;;;;;35.77;22.68;99683.13;4974538;28;20050;-71
2022/06/30 11:10:01;;;;;;;4.07;2.63;;;;;;;35.89;22.32;99677.38;4974758;28;20046;-72
2022/06/30 11:12:55;;;;;;;5.30;2.75;;;;;;;36.09;21.89;99683.81;4974506;28;20105;-72
2022/06/30 11:15:39;;;;;;;6.40;2.88;;;;;;;35.85;21.69;99680.69;4974679;28;20043;-71
2022/06/30 11:18:07;;;;;;;6.25;2.88;;;;;;;35.67;22.07;99677.56;4973871;28;20042;-72
2022/06/30 11:20:43;;;;;;;6.05;3.15;;;;;;;35.66;22.08;99675.88;4974489;28;20465;-72
2022/06/30 11:23:12;;;;;;;4.95;2.85;;;;;;;35.71;22.66;99668.44;4974357;28;20046;-72
2022/06/30 11:28:34;;;;;;;7.95;3.13;;;;;;;35.79;22.06;99654.00;4974146;28;20074;-87
2022/06/30 11:31:02;;;;;;;8.23;2.90;;;;;;;35.97;22.19;99649.94;4974757;28;20453;-72
2022/06/30 11:33:31;;;;;;;5.45;3.25;;;;;;;36.15;21.46;99643.03;4974344;28;20105;-72
2022/06/30 11:36:05;;;;;;;5.40;2.58;;;;;;;36.25;20.90;99645.00;4957111;28;20503;-72
2022/06/30 11:38:34;;;;;;;5.85;2.70;;;;;;;36.23;21.15;99652.78;4957290;28;20460;-72
2022/06/30 11:43:53;;;;;;;5.65;2.95;;;;;;;36.20;21.32;99637.50;4942194;28;20416;-72
2022/06/30 11:46:21;;;;;;;6.43;3.22;;;;;;;36.24;21.44;99635.84;4974140;28;20456;-72
2022/06/30 11:48:50;;;;;;;6.35;3.03;;;;;;;36.08;21.14;99634.13;4974151;28;20043;-72
2022/06/30 11:51:18;;;;;;;4.80;2.88;;;;;;;36.23;21.40;99636.94;4974108;28;20126;-72
2022/06/30 11:53:46;;;;;;;5.60;2.40;;;;;;;36.34;20.89;99638.63;4973903;28;20047;-72
2022/06/30 11:56:16;;;;;;;7.18;2.88;;;;;;;36.43;20.88;99624.22;4974036;28;20042;-72
2022/06/30 11:58:46;;;;;;;7.57;3.20;;;;;;;36.44;21.41;99631.44;4974059;28;20130;-72
2022/06/30 12:01:17;;;;;;;4.35;2.83;;;;;;;36.47;21.45;99619.78;4973773;28;20054;-72
2022/06/30 12:03:48;;;;;;;7.25;3.03;;;;;;;36.49;21.36;99612.84;4974193;28;20441;-71
2022/06/30 12:06:17;;;;;;;5.72;2.67;;;;;;;36.20;21.50;99626.41;4957095;28;20093;-71